Time;durP1;ratioP1;P1;durP2;ratioP2;P2;SDS_P1;SDS_P2;PMS_P1;PMS_P2;Temp;Humidity;BMP_temperature;BMP_pressure;BME280_temperature;BME280_humidity;BME280_pressure;Samples;Min_cycle;Max_cycle;Signal;HPM_P1;HPM_P2
2021/07/03 00:00:06;;;;;;;1.35;1.23;;;;;;;25.55;41.62;94725.03;4766292;30;20035;-74
2021/07/03 00:02:31;;;;;;;0.80;0.80;;;;;;;25.38;41.54;94691.81;4766211;30;20042;-74
2021/07/03 00:04:56;;;;;;;3.35;0.98;;;;;;;25.51;41.35;94713.66;4765643;30;20039;-74
2021/07/03 00:07:22;;;;;;;3.08;1.40;;;;;;;25.45;41.96;94710.31;4766078;30;20100;-73
2021/07/03 00:09:47;;;;;;;1.50;1.13;;;;;;;25.49;42.11;94710.75;4765660;30;20051;-74
2021/07/03 00:12:13;;;;;;;1.27;1.08;;;;;;;25.12;41.78;94661.81;4750143;30;20038;-73
2021/07/03 00:14:38;;;;;;;1.20;0.98;;;;;;;25.46;41.86;94718.00;4749830;30;20088;-73
2021/07/03 00:17:04;;;;;;;1.65;0.90;;;;;;;25.47;42.03;94716.75;4765875;30;20089;-74
2021/07/03 00:19:29;;;;;;;1.20;1.10;;;;;;;25.46;41.88;94728.94;4765502;30;20055;-75
2021/07/03 00:21:55;;;;;;;1.23;0.82;;;;;;;25.45;42.00;94721.97;4764986;30;20089;-74
2021/07/03 00:24:20;;;;;;;1.50;1.10;;;;;;;25.14;42.26;94670.25;4749487;30;20028;-74
2021/07/03 00:26:46;;;;;;;1.20;0.90;;;;;;;25.45;42.25;94726.72;4765689;30;20028;-74
2021/07/03 00:29:11;;;;;;;1.48;0.90;;;;;;;25.45;42.34;94732.19;4765407;30;20460;-72
2021/07/03 00:31:37;;;;;;;1.33;0.88;;;;;;;25.45;42.33;94726.72;4765258;30;20030;-72
2021/07/03 00:34:02;;;;;;;2.00;0.88;;;;;;;25.46;42.17;94733.69;4764980;30;20028;-74
2021/07/03 00:36:28;;;;;;;1.23;0.80;;;;;;;25.45;42.12;94732.19;4765259;30;20182;-72
2021/07/03 00:38:53;;;;;;;1.42;0.80;;;;;;;25.36;42.47;94729.91;4765253;30;20035;-74
2021/07/03 00:41:19;;;;;;;1.88;0.90;;;;;;;25.38;42.16;94735.56;4765307;30;20039;-73
2021/07/03 00:43:44;;;;;;;1.00;0.70;;;;;;;25.40;42.29;94733.06;4764872;30;20035;-74
2021/07/03 00:46:10;;;;;;;0.95;0.85;;;;;;;25.35;42.25;94728.41;4765489;30;20420;-74
2021/07/03 00:48:35;;;;;;;1.35;0.70;;;;;;;25.35;42.29;94739.34;4749483;30;20032;-75
2021/07/03 00:51:01;;;;;;;1.00;0.70;;;;;;;25.31;42.17;94734.22;4765256;30;20473;-74
2021/07/03 00:53:26;;;;;;;3.15;0.90;;;;;;;25.22;42.52;94714.78;4764935;30;20111;-74
2021/07/03 00:55:52;;;;;;;1.02;0.68;;;;;;;25.07;42.35;94687.28;4765099;30;20048;-74
2021/07/03 00:58:17;;;;;;;1.15;0.85;;;;;;;25.35;42.34;94733.88;4765337;30;20039;-75
2021/07/03 01:00:44;;;;;;;1.35;0.93;;;;;;;24.89;42.43;94663.53;4764784;30;20051;-74
2021/07/03 01:03:10;;;;;;;1.10;0.90;;;;;;;25.34;42.31;94733.16;4765109;30;20474;-74
2021/07/03 01:05:35;;;;;;;0.77;0.70;;;;;;;25.34;42.30;94732.44;4765266;30;20036;-74
2021/07/03 01:08:01;;;;;;;1.02;0.68;;;;;;;25.36;42.29;94729.91;4765070;30;20039;-73
2021/07/03 01:10:27;;;;;;;0.80;0.70;;;;;;;25.32;42.54;94726.78;4765316;30;20023;-72
2021/07/03 01:12:53;;;;;;;2.25;0.90;;;;;;;25.29;42.60;94736.03;4764866;30;20040;-75
2021/07/03 01:15:19;;;;;;;1.42;0.90;;;;;;;25.28;42.49;94729.09;4764635;30;20477;-74
2021/07/03 01:17:44;;;;;;;1.27;1.00;;;;;;;25.32;42.66;94734.97;4748879;30;20473;-73
2021/07/03 01:20:10;;;;;;;1.83;0.80;;;;;;;25.33;42.50;94733.69;4764754;30;20591;-75
2021/07/03 01:22:37;;;;;;;1.70;0.85;;;;;;;25.30;42.46;94732.00;4764729;30;20058;-75
2021/07/03 01:25:03;;;;;;;1.75;0.90;;;;;;;25.28;42.75;94740.00;4764893;30;20032;-73
2021/07/03 01:27:28;;;;;;;1.00;0.80;;;;;;;25.19;42.70;94726.06;4764879;30;20032;-74
2021/07/03 01:29:54;;;;;;;1.98;0.70;;;;;;;25.20;42.68;94733.72;4764861;30;20050;-73
2021/07/03 01:32:21;;;;;;;1.10;0.73;;;;;;;24.85;42.87;94674.03;4764311;30;20526;-73
2021/07/03 01:34:47;;;;;;;0.80;0.80;;;;;;;25.15;42.82;94715.44;4748863;30;20038;-72
2021/07/03 01:37:12;;;;;;;1.10;0.85;;;;;;;25.10;42.62;94719.03;4748763;30;20036;-73
2021/07/03 01:39:39;;;;;;;1.00;0.80;;;;;;;25.15;42.82;94707.22;4764915;30;20032;-73
2021/07/03 01:42:05;;;;;;;0.90;0.55;;;;;;;25.15;42.68;94720.91;4748474;30;20056;-74
2021/07/03 01:44:30;;;;;;;0.88;0.60;;;;;;;25.12;42.94;94719.22;4766739;30;20089;-73
2021/07/03 01:46:57;;;;;;;2.28;0.70;;;;;;;25.13;42.94;94717.97;4768445;30;20039;-73
2021/07/03 01:49:22;;;;;;;0.75;0.70;;;;;;;25.12;42.47;94705.56;4768306;30;20079;-73
2021/07/03 01:51:48;;;;;;;0.85;0.70;;;;;;;24.76;42.27;94662.09;4767906;30;20120;-74
2021/07/03 01:54:13;;;;;;;0.90;0.60;;;;;;;25.10;42.21;94713.56;4767836;30;20054;-73
2021/07/03 01:56:41;;;;;;;1.15;0.77;;;;;;;25.09;42.10;94723.00;4768249;30;20098;-74
2021/07/03 01:59:07;;;;;;;1.80;0.80;;;;;;;25.08;42.21;94721.56;4738051;30;20063;-74
2021/07/03 02:01:33;;;;;;;1.13;0.63;;;;;;;25.11;42.17;94715.03;4768265;30;20040;-73
2021/07/03 02:03:59;;;;;;;1.60;0.70;;;;;;;25.13;42.00;94707.03;4768298;30;20047;-74
2021/07/03 02:06:28;;;;;;;1.42;0.70;;;;;;;25.13;41.45;94715.22;4768013;30;20423;-72
2021/07/03 02:08:53;;;;;;;1.73;0.65;;;;;;;25.09;41.54;94712.06;4767073;30;20043;-73
2021/07/03 02:11:19;;;;;;;1.10;0.70;;;;;;;25.05;41.53;94706.22;4768171;30;20043;-74
2021/07/03 02:13:44;;;;;;;1.15;0.70;;;;;;;25.02;41.31;94707.25;4751266;30;20039;-73
2021/07/03 02:16:09;;;;;;;1.30;0.60;;;;;;;25.05;41.32;94700.75;4767659;30;20043;-74
2021/07/03 02:18:35;;;;;;;1.38;0.70;;;;;;;25.01;41.71;94707.78;4767794;30;20035;-73
2021/07/03 02:21:00;;;;;;;1.88;0.77;;;;;;;25.03;41.50;94714.19;4767712;30;20048;-73
2021/07/03 02:23:26;;;;;;;1.58;0.70;;;;;;;25.02;41.26;94707.25;4767438;30;20035;-73
2021/07/03 02:25:51;;;;;;;1.80;0.80;;;;;;;24.96;41.58;94708.59;4751683;30;20404;-73
2021/07/03 02:28:17;;;;;;;0.90;0.80;;;;;;;24.97;41.48;94699.88;4767657;30;20043;-73
2021/07/03 02:30:42;;;;;;;1.25;0.80;;;;;;;25.00;41.30;94698.84;4767557;30;20036;-74
2021/07/03 02:33:09;;;;;;;1.25;0.80;;;;;;;25.02;41.08;94699.06;4767330;30;20036;-72
2021/07/03 02:35:35;;;;;;;1.95;1.00;;;;;;;25.03;41.03;94703.25;4767775;30;20111;-72
2021/07/03 02:38:00;;;;;;;3.70;1.20;;;;;;;24.96;41.08;94703.88;4767640;30;20027;-72
2021/07/03 02:40:26;;;;;;;1.75;0.80;;;;;;;24.96;41.24;94719.50;4767428;30;20047;-72
2021/07/03 02:42:51;;;;;;;1.15;0.70;;;;;;;24.96;41.25;94719.50;4767197;30;20036;-74
2021/07/03 02:45:17;;;;;;;2.10;0.90;;;;;;;24.95;41.21;94718.78;4767720;30;20438;-73
2021/07/03 02:47:43;;;;;;;2.25;0.73;;;;;;;24.93;41.55;94732.25;4767767;30;20066;-72
2021/07/03 02:50:11;;;;;;;1.42;0.80;;;;;;;24.83;41.34;94709.34;4751803;30;20118;-72
2021/07/03 02:52:36;;;;;;;1.50;0.90;;;;;;;24.48;41.12;94675.50;4767433;30;20031;-73
2021/07/03 02:55:03;;;;;;;1.35;0.90;;;;;;;24.88;41.66;94735.81;4750657;30;20254;-74
2021/07/03 02:57:28;;;;;;;1.73;0.90;;;;;;;24.91;41.53;94736.75;4767384;30;20036;-74
2021/07/03 02:59:54;;;;;;;1.70;0.73;;;;;;;24.63;41.59;94697.56;4751232;30;20027;-73
2021/07/03 03:02:19;;;;;;;1.40;0.90;;;;;;;24.93;41.46;94743.19;4766974;30;20133;-72
2021/07/03 03:04:45;;;;;;;5.25;1.35;;;;;;;24.95;41.08;94746.09;4766789;30;20054;-74
2021/07/03 03:07:10;;;;;;;1.30;0.70;;;;;;;24.93;41.69;94743.19;4767298;30;20526;-72
2021/07/03 03:09:36;;;;;;;1.30;0.60;;;;;;;24.91;41.27;94753.16;4767177;30;20038;-74
2021/07/03 03:12:01;;;;;;;2.83;1.10;;;;;;;24.88;41.36;94741.25;4767417;30;20035;-74
2021/07/03 03:14:27;;;;;;;1.55;1.00;;;;;;;24.84;42.01;94757.25;4766550;30;20031;-73
2021/07/03 03:16:52;;;;;;;2.33;0.88;;;;;;;24.86;41.64;94748.53;4750827;30;20044;-74
2021/07/03 03:19:18;;;;;;;2.25;1.00;;;;;;;24.87;41.72;94750.75;4767026;30;20254;-74
2021/07/03 03:21:43;;;;;;;2.55;0.95;;;;;;;24.87;41.58;94750.75;4766760;30;20044;-73
2021/07/03 03:24:09;;;;;;;1.55;0.80;;;;;;;24.87;41.97;94761.66;4766627;30;20531;-74
2021/07/03 03:26:34;;;;;;;1.45;1.00;;;;;;;24.86;41.59;94756.72;4766828;30;20027;-73
2021/07/03 03:29:01;;;;;;;1.50;0.90;;;;;;;24.87;41.85;94772.59;4751004;30;20035;-73
2021/07/03 03:31:27;;;;;;;2.85;0.93;;;;;;;24.89;41.82;94763.88;4766369;30;20040;-73
2021/07/03 03:33:52;;;;;;;1.50;1.00;;;;;;;24.91;41.79;94769.53;4766142;30;20121;-74
2021/07/03 03:36:17;;;;;;;2.55;1.00;;;;;;;24.68;41.52;94740.41;4750696;30;20050;-74
2021/07/03 03:38:43;;;;;;;2.35;0.90;;;;;;;24.86;42.20;94768.38;4766382;30;20039;-74
2021/07/03 03:41:08;;;;;;;1.80;0.80;;;;;;;24.76;41.67;94754.94;4766328;30;20039;-74
2021/07/03 03:43:34;;;;;;;1.63;0.98;;;;;;;24.85;42.13;94768.91;4766075;30;20036;-74
2021/07/03 03:45:59;;;;;;;1.90;0.90;;;;;;;24.84;42.05;94759.97;4766855;30;20027;-73
2021/07/03 03:48:25;;;;;;;2.42;0.95;;;;;;;24.81;42.31;94762.28;4766613;30;20035;-74
2021/07/03 03:50:50;;;;;;;1.67;1.17;;;;;;;24.80;42.37;94760.81;4766400;30;20035;-72
2021/07/03 03:53:15;;;;;;;2.50;1.38;;;;;;;24.83;42.29;94755.03;4765707;30;20035;-74
2021/07/03 03:55:41;;;;;;;1.98;1.10;;;;;;;24.86;42.21;94754.72;4766211;30;20491;-74
2021/07/03 03:58:07;;;;;;;2.75;1.08;;;;;;;24.92;42.18;94749.16;4766149;30;20027;-73
2021/07/03 04:00:32;;;;;;;2.47;1.55;;;;;;;24.90;42.30;94760.63;4766328;30;20030;-74
2021/07/03 04:02:57;;;;;;;3.78;1.20;;;;;;;24.92;42.14;94769.00;4766140;30;20105;-73
2021/07/03 04:05:23;;;;;;;1.80;1.00;;;;;;;24.92;42.29;94758.09;4749893;30;20473;-72
2021/07/03 04:07:48;;;;;;;2.40;1.33;;;;;;;24.95;42.13;94757.03;4766054;30;20055;-73
2021/07/03 04:10:14;;;;;;;1.85;1.00;;;;;;;24.96;42.21;94758.50;4766053;30;20106;-74
2021/07/03 04:12:40;;;;;;;2.38;1.35;;;;;;;24.99;42.11;94762.97;4766024;30;20492;-73
2021/07/03 04:15:07;;;;;;;2.97;1.38;;;;;;;24.98;42.61;94763.47;4753494;30;20034;-72
2021/07/03 04:17:33;;;;;;;2.50;1.38;;;;;;;25.01;42.72;94765.16;4783163;30;20092;-75
2021/07/03 04:19:58;;;;;;;2.83;1.25;;;;;;;24.98;42.93;94769.66;4783345;29;20511;-74
2021/07/03 04:22:24;;;;;;;2.25;1.33;;;;;;;25.03;42.77;94774.28;4783379;30;20027;-72
2021/07/03 04:24:49;;;;;;;2.67;1.13;;;;;;;25.01;43.24;94771.34;4781809;30;20031;-72
2021/07/03 04:27:15;;;;;;;2.42;1.38;;;;;;;25.04;43.03;94783.97;4773834;30;20032;-71
2021/07/03 04:29:40;;;;;;;5.25;1.30;;;;;;;24.95;43.26;94762.50;4725729;30;20520;-72
2021/07/03 04:32:06;;;;;;;3.58;1.35;;;;;;;25.08;42.67;94773.47;4774162;30;20031;-73
2021/07/03 04:34:31;;;;;;;2.20;1.20;;;;;;;25.06;42.73;94778.69;4772494;30;20035;-72
2021/07/03 04:36:57;;;;;;;2.00;1.30;;;;;;;25.06;42.92;94777.97;4748648;30;20031;-73
2021/07/03 04:39:22;;;;;;;2.13;1.55;;;;;;;25.00;42.74;94760.94;4764567;30;20038;-75
2021/07/03 04:41:48;;;;;;;2.95;1.33;;;;;;;25.09;43.12;94774.91;4765227;30;20024;-77
2021/07/03 04:44:14;;;;;;;3.05;1.33;;;;;;;24.56;42.71;94703.69;4765227;30;20529;-77
2021/07/03 04:46:40;;;;;;;3.53;1.40;;;;;;;25.13;43.37;94783.53;4749758;30;20035;-78
2021/07/03 04:49:05;;;;;;;2.13;1.50;;;;;;;24.73;43.16;94712.28;4765047;30;20034;-75
2021/07/03 04:51:31;;;;;;;2.92;1.42;;;;;;;25.14;42.94;94779.56;4765497;30;20031;-76
2021/07/03 04:53:56;;;;;;;3.28;1.38;;;;;;;24.74;42.92;94719.19;4765074;30;20035;-75
2021/07/03 04:56:22;;;;;;;3.28;1.52;;;;;;;25.19;43.11;94786.91;4765244;30;20529;-76
2021/07/03 04:58:47;;;;;;;4.15;1.25;;;;;;;25.19;43.09;94792.38;4749282;30;20035;-76
2021/07/03 05:01:13;;;;;;;2.45;1.25;;;;;;;25.21;43.07;94794.59;4765165;30;20115;-77
2021/07/03 05:03:38;;;;;;;2.08;1.40;;;;;;;25.24;42.95;94783.31;4765126;30;20036;-76
2021/07/03 05:06:03;;;;;;;2.67;1.60;;;;;;;24.90;42.81;94724.34;4749332;30;20035;-73
2021/07/03 05:08:29;;;;;;;2.72;1.40;;;;;;;25.32;42.54;94790.38;4767270;30;20043;-76
2021/07/03 05:10:55;;;;;;;2.10;1.58;;;;;;;24.87;42.55;94723.44;4749496;30;20039;-73
2021/07/03 05:13:20;;;;;;;3.70;1.85;;;;;;;25.35;42.76;94794.03;4765292;30;20035;-77
2021/07/03 05:15:45;;;;;;;2.78;1.42;;;;;;;25.39;42.86;94786.25;4765468;30;20043;-76
2021/07/03 05:18:11;;;;;;;3.75;1.48;;;;;;;25.08;42.76;94732.47;4748674;30;20043;-77
2021/07/03 05:20:36;;;;;;;3.03;1.65;;;;;;;25.45;42.77;94782.13;4749339;30;20079;-74
2021/07/03 05:23:02;;;;;;;3.22;1.80;;;;;;;25.62;42.49;94781.78;4765243;30;20467;-74
2021/07/03 05:25:27;;;;;;;3.88;1.70;;;;;;;25.23;41.74;94740.88;4765453;30;20443;-75
2021/07/03 05:27:53;;;;;;;3.90;1.75;;;;;;;25.65;41.52;94791.69;4749476;30;20076;-77
2021/07/03 05:30:18;;;;;;;3.60;1.60;;;;;;;25.74;41.15;94802.19;4765316;30;20039;-74
2021/07/03 05:32:44;;;;;;;5.40;1.92;;;;;;;25.85;40.92;94797.25;4765325;30;20047;-74
2021/07/03 05:35:11;;;;;;;3.97;1.63;;;;;;;25.82;40.95;94796.28;4765541;30;20035;-76
2021/07/03 05:37:36;;;;;;;4.20;2.05;;;;;;;25.90;40.80;94788.91;4765425;30;20097;-76
2021/07/03 05:40:03;;;;;;;3.17;1.70;;;;;;;25.97;40.73;94771.81;4749582;30;20035;-76
2021/07/03 05:42:28;;;;;;;4.22;1.98;;;;;;;26.09;40.25;94783.28;4765424;30;20123;-74
2021/07/03 05:44:54;;;;;;;2.92;1.85;;;;;;;26.20;40.34;94800.16;4763648;30;20665;-76
2021/07/03 05:47:20;;;;;;;4.38;1.75;;;;;;;26.23;40.19;94788.13;4764949;30;20496;-76
2021/07/03 05:49:45;;;;;;;2.28;1.80;;;;;;;26.33;40.19;94798.13;4763588;30;20035;-74
2021/07/03 05:52:11;;;;;;;3.88;1.90;;;;;;;26.43;39.72;94795.66;4765038;30;20085;-73
2021/07/03 05:54:36;;;;;;;3.38;1.67;;;;;;;26.38;39.59;94783.59;4764704;30;20020;-73
2021/07/03 05:57:02;;;;;;;2.60;1.90;;;;;;;26.46;39.44;94805.56;4748645;30;20027;-74
2021/07/03 05:59:28;;;;;;;3.55;1.73;;;;;;;26.59;39.53;94797.25;4765169;30;20052;-73
2021/07/03 06:01:53;;;;;;;3.65;1.95;;;;;;;26.62;39.31;94790.72;4764719;30;20028;-76
2021/07/03 06:04:18;;;;;;;3.28;1.80;;;;;;;26.75;39.68;94799.59;4748781;30;20028;-74
2021/07/03 06:06:44;;;;;;;3.42;1.75;;;;;;;26.60;39.82;94771.34;4764855;30;20031;-76
2021/07/03 06:09:09;;;;;;;5.43;1.55;;;;;;;26.86;39.17;94788.34;4765037;30;20024;-76
2021/07/03 06:11:35;;;;;;;5.40;2.00;;;;;;;26.98;39.49;94801.25;4763433;30;20031;-80
2021/07/03 06:14:01;;;;;;;3.40;1.77;;;;;;;27.12;38.97;94790.94;4765280;30;20401;-77
2021/07/03 06:16:26;;;;;;;3.03;1.70;;;;;;;26.91;39.00;94755.34;4764864;30;20122;-75
2021/07/03 06:18:52;;;;;;;2.28;1.65;;;;;;;27.26;38.64;94795.75;4765514;30;20652;-76
2021/07/03 06:21:17;;;;;;;3.20;1.98;;;;;;;26.98;38.29;94735.47;4748541;30;20134;-77
2021/07/03 06:23:43;;;;;;;2.90;1.60;;;;;;;27.24;38.62;94784.59;4731078;30;20063;-73
2021/07/03 06:26:08;;;;;;;2.20;1.63;;;;;;;27.32;38.49;94785.38;4730742;30;20032;-72
2021/07/03 06:28:34;;;;;;;4.15;1.92;;;;;;;27.33;38.58;94795.06;4747155;30;20163;-74
2021/07/03 06:30:59;;;;;;;2.70;1.65;;;;;;;27.30;38.39;94774.22;4750213;30;20039;-78
2021/07/03 06:33:25;;;;;;;3.25;1.77;;;;;;;27.20;38.26;94759.53;4734534;30;20032;-76
2021/07/03 06:35:50;;;;;;;4.28;1.80;;;;;;;27.36;38.28;94780.28;4751322;30;20089;-79
2021/07/03 06:38:16;;;;;;;5.43;1.60;;;;;;;27.49;38.74;94804.84;4750748;30;20428;-78
2021/07/03 06:40:41;;;;;;;2.85;2.00;;;;;;;27.49;38.53;94810.34;4750257;30;20435;-76
2021/07/03 06:43:07;;;;;;;6.78;1.75;;;;;;;27.44;38.28;94802.97;4750903;30;20460;-78
2021/07/03 06:45:32;;;;;;;2.83;1.92;;;;;;;27.61;38.04;94812.25;4749970;30;20036;-74
2021/07/03 06:47:58;;;;;;;2.25;1.65;;;;;;;27.55;37.79;94808.19;4749817;30;20028;-75
2021/07/03 06:50:24;;;;;;;4.05;1.83;;;;;;;27.30;38.42;94782.44;4749701;30;20060;-75
2021/07/03 06:52:49;;;;;;;3.28;1.70;;;;;;;27.63;37.83;94809.69;4749347;30;20055;-73
2021/07/03 06:55:15;;;;;;;4.07;1.73;;;;;;;27.30;38.10;94749.53;4719104;30;20028;-72
2021/07/03 06:57:40;;;;;;;2.92;2.00;;;;;;;27.59;38.44;94808.56;4733614;30;20028;-74
2021/07/03 07:00:06;;;;;;;2.33;1.58;;;;;;;27.59;37.75;94794.84;4749540;30;20032;-73
2021/07/03 07:02:32;;;;;;;3.42;1.73;;;;;;;27.67;38.30;94803.84;4749852;30;20040;-74
2021/07/03 07:04:57;;;;;;;2.97;1.80;;;;;;;27.73;37.72;94802.44;4748928;30;20040;-73
2021/07/03 07:07:22;;;;;;;3.00;1.77;;;;;;;27.71;37.34;94798.75;4749486;30;20094;-71
2021/07/03 07:09:48;;;;;;;4.00;1.80;;;;;;;27.71;37.77;94812.47;4749443;30;20036;-74
2021/07/03 07:12:13;;;;;;;2.67;1.70;;;;;;;27.71;37.56;94799.47;4749538;30;20020;-73
2021/07/03 07:14:41;;;;;;;4.22;1.70;;;;;;;27.74;37.46;94801.88;4749414;30;20044;-72
2021/07/03 07:17:07;;;;;;;2.70;1.83;;;;;;;27.66;37.31;94807.88;4749042;30;20048;-75
2021/07/03 07:19:33;;;;;;;5.63;2.10;;;;;;;27.60;37.46;94799.06;4752820;30;20063;-74
2021/07/03 07:21:58;;;;;;;2.40;1.70;;;;;;;27.63;37.12;94800.75;4767391;30;20516;-75
2021/07/03 07:24:23;;;;;;;3.50;1.80;;;;;;;27.73;36.72;94797.66;4767637;30;20035;-78
2021/07/03 07:26:49;;;;;;;2.83;1.90;;;;;;;27.44;37.12;94751.63;4767081;30;20035;-76
2021/07/03 07:29:14;;;;;;;4.90;2.05;;;;;;;27.76;37.05;94796.56;4766330;30;20062;-77
2021/07/03 07:31:40;;;;;;;2.75;1.90;;;;;;;27.76;37.65;94793.84;4767601;30;20097;-75
2021/07/03 07:34:06;;;;;;;3.63;1.80;;;;;;;27.70;37.35;94802.75;4766638;30;20039;-74
2021/07/03 07:36:31;;;;;;;3.30;1.85;;;;;;;27.77;36.85;94806.28;4767065;30;20134;-77
2021/07/03 07:38:57;;;;;;;4.00;2.00;;;;;;;27.76;36.83;94796.56;4766666;30;20043;-75
2021/07/03 07:41:22;;;;;;;2.50;1.60;;;;;;;27.52;37.04;94792.81;4750465;30;20407;-76
2021/07/03 07:43:48;;;;;;;2.88;1.98;;;;;;;27.70;37.24;94802.75;4767070;30;20043;-77
2021/07/03 07:46:13;;;;;;;4.20;2.03;;;;;;;27.72;37.01;94800.22;4766983;30;20113;-78
2021/07/03 07:48:40;;;;;;;4.70;1.90;;;;;;;27.30;37.26;94749.53;4767199;30;20369;-78
2021/07/03 07:51:06;;;;;;;2.42;1.70;;;;;;;27.49;37.04;94753.47;4766330;30;20027;-78
2021/07/03 07:53:31;;;;;;;2.67;1.90;;;;;;;27.72;36.77;94805.72;4750710;30;20036;-73
2021/07/03 07:55:57;;;;;;;3.03;1.92;;;;;;;27.72;36.95;94805.72;4766502;30;20035;-75
2021/07/03 07:58:23;;;;;;;2.33;1.70;;;;;;;27.86;36.68;94800.28;4766227;30;20039;-74
2021/07/03 08:00:49;;;;;;;2.78;1.67;;;;;;;27.94;36.86;94805.81;4750236;30;20103;-74
2021/07/03 08:03:14;;;;;;;3.50;1.67;;;;;;;28.00;36.95;94809.13;4766261;30;20035;-75
2021/07/03 08:05:40;;;;;;;2.53;1.73;;;;;;;27.99;36.68;94811.09;4766288;30;20027;-72
2021/07/03 08:08:06;;;;;;;5.53;1.40;;;;;;;27.98;36.51;94806.91;4765740;30;20039;-74
2021/07/03 08:10:33;;;;;;;7.45;2.08;;;;;;;28.02;36.57;94798.31;4766357;30;20028;-73
2021/07/03 08:12:58;;;;;;;4.05;2.00;;;;;;;27.93;36.51;94805.03;4765947;30;20039;-73
2021/07/03 08:15:24;;;;;;;4.93;1.63;;;;;;;27.91;37.29;94807.63;4766650;30;20035;-74
2021/07/03 08:17:49;;;;;;;3.65;1.38;;;;;;;28.05;36.71;94806.19;4767233;30;20049;-75
2021/07/03 08:20:17;;;;;;;3.80;2.28;;;;;;;27.92;37.13;94809.09;4766062;30;20063;-73
2021/07/03 08:22:43;;;;;;;3.05;1.30;;;;;;;27.77;36.71;94811.03;4768047;30;20052;-75
2021/07/03 08:25:09;;;;;;;5.60;1.83;;;;;;;27.79;37.41;94811.97;4767452;30;20070;-73
2021/07/03 08:27:35;;;;;;;1.85;1.50;;;;;;;27.89;37.15;94815.66;4777239;30;20043;-73
2021/07/03 08:30:00;;;;;;;2.20;1.55;;;;;;;27.81;36.98;94786.72;4770380;30;20035;-74
2021/07/03 08:32:26;;;;;;;2.88;1.88;;;;;;;28.09;36.78;94800.38;4777448;30;20034;-75
2021/07/03 08:34:51;;;;;;;6.65;2.20;;;;;;;28.06;36.87;94801.44;4778360;30;20035;-73
2021/07/03 08:37:16;;;;;;;2.55;1.67;;;;;;;28.04;36.95;94815.72;4773989;30;20026;-75
2021/07/03 08:39:43;;;;;;;2.58;1.50;;;;;;;27.93;37.29;94799.56;4783626;30;20023;-75
2021/07/03 08:42:09;;;;;;;2.08;1.50;;;;;;;27.67;36.91;94770.91;4783513;30;20547;-75
2021/07/03 08:44:35;;;;;;;3.80;2.00;;;;;;;27.98;36.89;94801.41;4782152;30;20039;-72
2021/07/03 08:47:00;;;;;;;3.28;1.60;;;;;;;27.94;37.24;94801.03;4783509;30;20038;-72
2021/07/03 08:49:26;;;;;;;3.65;1.98;;;;;;;27.84;36.77;94797.34;4783562;30;20404;-74
2021/07/03 08:51:52;;;;;;;2.78;1.63;;;;;;;27.60;37.14;94771.63;4767648;30;20042;-74
2021/07/03 08:54:18;;;;;;;4.38;1.52;;;;;;;27.83;37.36;94795.13;4782445;29;20034;-73
2021/07/03 08:56:44;;;;;;;2.72;1.90;;;;;;;27.88;36.88;94792.22;4767242;30;20031;-72
2021/07/03 08:59:17;;;;;;;2.15;1.50;;;;;;;27.92;36.70;94786.38;4783093;30;20035;-73
2021/07/03 09:01:54;;;;;;;2.95;2.03;;;;;;;27.90;36.97;94795.16;4783172;30;20039;-74
2021/07/03 09:04:35;;;;;;;5.38;2.08;;;;;;;27.87;36.89;94785.25;4782909;30;20693;-72
2021/07/03 09:07:15;;;;;;;5.00;1.85;;;;;;;27.88;36.52;94788.75;4783609;30;20042;-72
2021/07/03 09:09:41;;;;;;;2.38;1.65;;;;;;;27.85;36.76;94787.81;4783147;30;20039;-73
2021/07/03 09:12:07;;;;;;;3.33;2.05;;;;;;;27.88;37.19;94784.00;4783207;30;20515;-74
2021/07/03 09:14:36;;;;;;;4.43;1.85;;;;;;;27.42;37.10;94717.78;4782849;30;20039;-73
2021/07/03 09:17:02;;;;;;;4.40;2.35;;;;;;;27.94;36.87;94789.34;4781833;30;20123;-75
2021/07/03 09:19:28;;;;;;;3.25;1.90;;;;;;;27.85;37.57;94782.34;4783060;30;20047;-76
2021/07/03 09:21:54;;;;;;;3.28;2.20;;;;;;;27.85;36.92;94781.63;4783020;30;20039;-75
2021/07/03 09:24:19;;;;;;;3.83;2.13;;;;;;;27.87;37.03;94790.75;4782945;30;20491;-74
2021/07/03 09:26:44;;;;;;;3.08;2.13;;;;;;;27.89;37.32;94793.72;4783018;30;20038;-74
2021/07/03 09:29:10;;;;;;;3.95;2.40;;;;;;;27.76;37.17;94751.94;4766717;30;20042;-75
2021/07/03 09:31:36;;;;;;;4.97;2.70;;;;;;;27.90;37.17;94778.69;4783225;30;20109;-75
2021/07/03 09:34:01;;;;;;;5.38;2.80;;;;;;;28.01;36.51;94777.63;4782478;30;20418;-76
2021/07/03 09:36:29;;;;;;;5.28;2.65;;;;;;;28.21;36.33;94779.53;4778780;30;20487;-75
2021/07/03 09:38:55;;;;;;;3.42;2.70;;;;;;;28.26;36.58;94771.09;4781387;30;20035;-76
2021/07/03 09:41:34;;;;;;;3.78;2.60;;;;;;;28.30;36.60;94779.72;4781862;30;20043;-73
2021/07/03 09:44:11;;;;;;;6.10;3.20;;;;;;;-140.79;100.00;63287.88;4770123;30;20506;-76
2021/07/03 09:46:41;;;;;;;3.53;2.40;;;;;;;-140.79;100.00;63287.88;4775783;30;20047;-80
2021/07/03 09:49:12;;;;;;;5.72;3.08;;;;;;;-140.79;100.00;63287.88;4780524;30;20415;-79
2021/07/03 09:51:53;;;;;;;2.97;2.50;;;;;;;-140.79;100.00;63287.88;4754643;30;20023;-79
2021/07/03 09:54:23;;;;;;;4.75;3.13;;;;;;;-140.79;100.00;63287.88;4755141;30;20042;-78
2021/07/03 09:56:58;;;;;;;3.60;2.53;;;;;;;-140.79;100.00;63287.88;4767055;30;20051;-77
2021/07/03 09:59:27;;;;;;;3.33;2.80;;;;;;;-140.79;100.00;63287.88;4782404;30;20035;-79
2021/07/03 10:01:53;;;;;;;3.10;2.58;;;;;;;-140.79;100.00;63287.88;4782589;30;20449;-78
2021/07/03 10:04:18;;;;;;;5.43;2.97;;;;;;;-140.79;100.00;63287.88;4782431;29;20430;-77
2021/07/03 10:06:49;;;;;;;4.63;3.00;;;;;;;-140.79;100.00;63287.88;4769645;30;20497;-77
2021/07/03 10:09:31;;;;;;;3.22;2.70;;;;;;;-140.79;100.00;63287.88;4770141;30;20042;-76
2021/07/03 10:11:59;;;;;;;4.53;3.70;;;;;;;-140.79;100.00;63287.88;4784657;30;20023;-77
2021/07/03 10:14:24;;;;;;;4.97;3.03;;;;;;;-140.79;100.00;63287.88;4754913;30;20114;-78
2021/07/03 10:17:03;;;;;;;5.25;3.58;;;;;;;-140.79;100.00;63287.88;4785784;30;20193;-76
2021/07/03 10:19:36;;;;;;;4.05;3.58;;;;;;;-140.79;100.00;63287.88;4785472;30;20535;-79
2021/07/03 10:22:12;;;;;;;8.40;5.22;;;;;;;-140.79;100.00;63287.88;4786150;30;20126;-79
2021/07/03 10:24:43;;;;;;;3.80;3.15;;;;;;;-140.79;100.00;63287.88;4785675;30;20039;-78
2021/07/03 10:27:20;;;;;;;4.25;3.78;;;;;;;-140.79;100.00;63287.88;4786100;30;20057;-77
2021/07/03 10:29:47;;;;;;;4.43;3.40;;;;;;;-140.79;100.00;63287.88;4785216;30;20507;-77
2021/07/03 10:32:30;;;;;;;4.82;3.50;;;;;;;-140.79;100.00;63287.88;4769406;30;20134;-78
2021/07/03 10:35:10;;;;;;;6.28;3.80;;;;;;;-140.79;100.00;63287.88;4785586;30;20106;-78
2021/07/03 10:37:35;;;;;;;4.32;3.65;;;;;;;-140.79;100.00;63287.88;4785963;30;20031;-76
2021/07/03 10:40:02;;;;;;;4.53;3.40;;;;;;;-140.79;100.00;63287.88;4780736;30;20523;-76
2021/07/03 10:42:31;;;;;;;4.65;3.22;;;;;;;-140.79;100.00;63287.88;4777432;30;20039;-78
2021/07/03 10:45:10;;;;;;;3.85;3.45;;;;;;;-140.79;100.00;63287.88;4769436;30;20027;-76
2021/07/03 10:47:35;;;;;;;5.05;3.33;;;;;;;-140.79;100.00;63287.88;4785468;30;20043;-80
2021/07/03 10:50:02;;;;;;;3.78;3.38;;;;;;;-140.79;100.00;63287.88;4785372;30;20074;-78
2021/07/03 10:52:37;;;;;;;4.15;3.70;;;;;;;-140.79;100.00;63287.88;4769336;30;20027;-75
2021/07/03 10:55:03;;;;;;;4.10;3.40;;;;;;;-140.79;100.00;63287.88;4784694;30;20085;-77
2021/07/03 10:57:28;;;;;;;5.47;3.85;;;;;;;-140.79;100.00;63287.88;4785489;30;20571;-75
2021/07/03 11:00:01;;;;;;;4.80;3.53;;;;;;;-140.79;100.00;63287.88;4785397;30;20068;-75
2021/07/03 11:02:30;;;;;;;5.15;3.47;;;;;;;-140.79;100.00;63287.88;4772711;30;20027;-75
2021/07/03 11:04:55;;;;;;;4.18;3.33;;;;;;;-140.79;100.00;63287.88;4784511;30;20105;-77
2021/07/03 11:07:25;;;;;;;3.92;3.33;;;;;;;-140.79;100.00;63287.88;4768599;30;20023;-75
2021/07/03 11:09:51;;;;;;;3.95;3.50;;;;;;;-140.79;100.00;63287.88;4758498;30;20482;-75
2021/07/03 11:12:21;;;;;;;3.60;3.30;;;;;;;-140.79;100.00;63287.88;4781283;30;20055;-76
2021/07/03 11:14:48;;;;;;;5.28;3.35;;;;;;;-140.79;100.00;63287.88;4784618;30;20088;-76
2021/07/03 11:17:14;;;;;;;4.03;3.50;;;;;;;-140.79;100.00;63287.88;4783264;29;20138;-76
2021/07/03 11:19:42;;;;;;;5.22;3.70;;;;;;;-140.79;100.00;63287.88;4756138;30;20071;-75
2021/07/03 11:22:08;;;;;;;6.25;4.60;;;;;;;-140.79;100.00;63287.88;4784710;30;20118;-76
2021/07/03 11:24:39;;;;;;;4.65;3.85;;;;;;;-140.79;100.00;63287.88;4784567;30;20047;-76